メインページ
METAR-TAF:

METAR-TAF

空港 :

ミネアポリス, ミネソタ州, アメリカ合衆国

ミネアポリス・セントポール国際空港

緯度: 44-52-59N, 経度: 093-13-44W, 海抜: 256m

現時点の気象観測

当レポートは36分前の15:53(UTC)に作成
南/南西の風 6kt
気温 -6°C
湿度 68%
気圧 1026 hPa
視程: 16.1km
高度25000ftの千切れ雲あり

METAR: KMSP 221553Z 20006KT 10SM BKN250 M06/M11 A3030 RMK AO2 SLP275 T10611111

時間: 10:29 (16:29 UTC)

予報

当レポートは1時間27分前の15:02(UTC)に作成
予報は22日の 15時(UTC)から 23日の 18時(UTC)まで有効
の風 7kt
視程: 10km
高度25000ftの千切れ雲あり
22日の 2000時(UTC)から
の風 11kt
視程: 10km
高度5000ftの千切れ雲あり
高度10000ftの曇り
23日の 0400時(UTC)から
の風 5kt
視程: 10km
高度4000ftの雲は散在している
高度10000ftの千切れ雲あり
23日の 0800時(UTC)から
西/南西の風 5kt
視程: 10km
高度15000ftの雲は散在している
23日の 1100時(UTC)から
北西の風 6kt
視程: 10km
高度25000ftの雲はほとんどない

TAF: KMSP 221502Z 2215/2318 18007KT P6SM BKN250 FM222000 18011KT P6SM BKN050 OVC100 FM230400 17005KT P6SM SCT040 BKN100 FM230800 25005KT P6SM SCT150 FM231100 31006KT P6SM FEW250

4,000以上の空港の気象観測と天気予報(METAR報とTAF報)

利用可能な観測所は地図上に黄色い丸と赤い丸で示す。

丸の上にカーソルを重ねると観測所名を参照できる。

次にクリックすると気象観測と天気予報を参照できる。

マップの切り替え:黒色「×」印の緑ボタンをクリックして拡大、「-」印の緑ボタンをクリックして縮小、緑色の三角印をクリックして隣りの地図に切り替え


METAR-TAF: